Pagina principală
METAR-TAF:

METAR-TAF

Aeroporturi :

Columbus Municipal Airport

Columbus, Nebraska, Statele Unite ale Americii

Latitudine: 41-27N, longitudine: 097-20W, elevație: 440 m

Observații meteo curente

Raportul a fost făcut în urmă cu 20 de minute, la 12:56 UTC
Vânt 12 kt de la Nord
Temperatură 6°C
Umiditate 81%
Presiune 1021 hPa
Vizibilitate: 16.1 km
Total acoperit la o înălțime de 10000 picior

METAR: KOLU 181256Z AUTO 36012KT 10SM OVC100 06/03 A3016 RMK AO2 RAE40 SLP220 P0000 T00560033

Ora: 08:16 (13:16 UTC)


TAF: lipsă

Observații și prognoze meteo pentru peste 4.000 de aeroporturi (rapoarte METAR și TAF).

Stațiile disponibile sunt reprezentate pe hartă prin puncte galbene și roșii.

Țineți indicatorul mouse-ului pe punctul dorit pentru a vedea denumirea stației.

Apoi, faceți clic pentru a vedea observațiile și prognozele meteorologice.

Pentru a schimba harta: Pentru mărire, faceți clic pe butoanele verzi cu cruce neagră; pentru micșorare, pe butonul verde cu o liniuță; pentru hărți învecinate, pe săgețile verzi.


METAR-TAF: